Time,TemperatureF,DewpointF,PressureIn,WindDirection,WindDirectionDegrees,WindSpeedMPH,WindSpeedGustMPH,Humidity,HourlyPrecipIn,Conditions,Clouds,dailyrainin,SoftwareType,DateUTC
2013-03-07 00:18:00,1.9,-1.3,29.93,SSE,157,0.0,-999.0,86,-99.99,,,0.00,Acu-Link.com,2013-03-07 09:18:00,
2013-03-07 00:33:00,2.3,0.1,29.92,SSE,157,0.0,-999.0,90,-99.99,,,0.00,Acu-Link.com,2013-03-07 09:33:00,
2013-03-07 00:48:00,2.8,0.1,29.91,SSE,157,1.1,-999.0,88,-99.99,,,0.00,Acu-Link.com,2013-03-07 09:48:00,
2013-03-07 01:03:00,2.7,0.0,29.92,SSE,157,0.0,-999.0,88,-99.99,,,0.00,Acu-Link.com,2013-03-07 10:03:00,
2013-03-07 01:18:00,2.7,0.0,29.92,SSE,157,0.0,-999.0,88,-99.99,,,0.00,Acu-Link.com,2013-03-07 10:18:00,
2013-03-07 01:49:00,3.2,0.2,29.90,SSE,157,0.0,-999.0,87,-99.99,,,0.00,Acu-Link.com,2013-03-07 10:49:00,
2013-03-07 02:04:00,2.1,-1.4,29.90,SSE,157,0.0,-999.0,85,-99.99,,,0.00,Acu-Link.com,2013-03-07 11:04:00,
2013-03-07 02:19:00,1.9,-1.1,29.90,SSE,157,0.0,-999.0,87,-99.99,,,0.00,Acu-Link.com,2013-03-07 11:19:00,
2013-03-07 02:34:00,1.9,-1.3,29.89,SSE,157,0.0,-999.0,86,-99.99,,,0.00,Acu-Link.com,2013-03-07 11:34:00,
2013-03-07 02:49:00,2.1,-0.9,29.88,SSE,157,0.0,-999.0,87,-99.99,,,0.00,Acu-Link.com,2013-03-07 11:49:00,
2013-03-07 03:04:00,1.9,-1.1,29.89,SSE,157,0.0,-999.0,87,-99.99,,,0.00,Acu-Link.com,2013-03-07 12:04:00,
2013-03-07 03:19:00,3.0,1.0,29.87,SSE,157,0.0,-999.0,91,-99.99,,,0.00,Acu-Link.com,2013-03-07 12:19:00,
2013-03-07 03:34:00,3.0,0.0,29.86,SSE,157,0.0,-999.0,87,-99.99,,,0.00,Acu-Link.com,2013-03-07 12:34:00,
2013-03-07 03:49:00,3.0,0.3,29.86,SSE,157,0.0,-999.0,88,-99.99,,,0.00,Acu-Link.com,2013-03-07 12:49:00,
2013-03-07 04:05:00,3.7,0.7,29.84,SSE,157,0.0,-999.0,87,-99.99,,,0.00,Acu-Link.com,2013-03-07 13:05:00,
2013-03-07 04:20:00,4.1,1.6,29.83,SSE,157,2.2,-999.0,89,-99.99,,,0.00,Acu-Link.com,2013-03-07 13:20:00,
2013-03-07 04:35:00,3.7,1.0,29.83,SSE,157,0.0,-999.0,88,-99.99,,,0.00,Acu-Link.com,2013-03-07 13:35:00,
2013-03-07 04:50:00,4.1,1.4,29.83,SSE,157,0.0,-999.0,88,-99.99,,,0.00,Acu-Link.com,2013-03-07 13:50:00,
2013-03-07 05:05:00,3.7,0.7,29.81,SSE,157,0.0,-999.0,87,-99.99,,,0.00,Acu-Link.com,2013-03-07 14:05:00,
2013-03-07 05:20:00,4.1,1.4,29.81,SSE,157,0.0,-999.0,88,-99.99,,,0.00,Acu-Link.com,2013-03-07 14:20:00,
2013-03-07 05:35:00,3.7,1.0,29.82,SSE,157,0.0,-999.0,88,-99.99,,,0.00,Acu-Link.com,2013-03-07 14:35:00,
2013-03-07 05:50:00,5.4,2.4,29.80,SSE,157,1.1,-999.0,87,-99.99,,,0.00,Acu-Link.com,2013-03-07 14:50:00,
2013-03-07 06:05:00,4.8,1.8,29.79,SSE,157,0.0,-999.0,87,-99.99,,,0.00,Acu-Link.com,2013-03-07 15:05:00,
2013-03-07 06:21:00,5.4,2.6,29.79,SSE,157,0.0,-999.0,88,-99.99,,,0.00,Acu-Link.com,2013-03-07 15:21:00,
2013-03-07 06:36:00,5.5,3.0,29.77,SSE,157,0.0,-999.0,89,-99.99,,,0.00,Acu-Link.com,2013-03-07 15:36:00,
2013-03-07 06:51:00,5.2,2.2,29.78,SSE,157,2.2,-999.0,87,-99.99,,,0.00,Acu-Link.com,2013-03-07 15:51:00,
2013-03-07 07:06:00,5.0,1.7,29.76,SSE,157,0.0,-999.0,86,-99.99,,,0.00,Acu-Link.com,2013-03-07 16:06:00,
2013-03-07 07:21:00,5.0,2.0,29.74,SSE,157,0.0,-999.0,87,-99.99,,,0.00,Acu-Link.com,2013-03-07 16:21:00,
2013-03-07 07:36:00,5.2,2.4,29.74,SSE,157,0.0,-999.0,88,-99.99,,,0.00,Acu-Link.com,2013-03-07 16:36:00,
2013-03-07 07:51:00,5.5,2.7,29.73,SSE,157,0.0,-999.0,88,-99.99,,,0.00,Acu-Link.com,2013-03-07 16:51:00,
2013-03-07 08:06:00,6.4,4.1,29.72,SSE,157,0.0,-999.0,90,-99.99,,,0.00,Acu-Link.com,2013-03-07 17:06:00,
2013-03-07 08:21:00,6.6,3.8,29.72,SSE,157,0.0,-999.0,88,-99.99,,,0.00,Acu-Link.com,2013-03-07 17:21:00,
2013-03-07 08:37:00,7.3,4.3,29.73,SSE,157,0.0,-999.0,87,-99.99,,,0.00,Acu-Link.com,2013-03-07 17:37:00,
2013-03-07 08:52:00,9.0,5.9,29.73,SSE,157,1.7,-999.0,87,-99.99,,,0.00,Acu-Link.com,2013-03-07 17:52:00,
2013-03-07 09:07:00,10.6,7.8,29.72,SSE,157,0.0,-999.0,88,-99.99,,,0.00,Acu-Link.com,2013-03-07 18:07:00,
2013-03-07 09:22:00,11.5,8.4,29.70,SSE,157,1.7,-999.0,87,-99.99,,,0.00,Acu-Link.com,2013-03-07 18:22:00,
2013-03-07 09:37:00,12.6,9.5,29.71,SSE,157,0.0,-999.0,87,-99.99,,,0.00,Acu-Link.com,2013-03-07 18:37:00,
2013-03-07 09:52:00,13.5,10.4,29.71,SSE,157,2.7,-999.0,87,-99.99,,,0.00,Acu-Link.com,2013-03-07 18:52:00,
2013-03-07 10:07:00,14.9,11.7,29.69,SSE,157,0.0,-999.0,87,-99.99,,,0.00,Acu-Link.com,2013-03-07 19:07:00,
2013-03-07 10:22:00,15.8,12.1,29.68,SSE,157,2.2,-999.0,85,-99.99,,,0.00,Acu-Link.com,2013-03-07 19:22:00,
2013-03-07 10:37:00,17.8,14.9,29.67,SSE,157,0.0,-999.0,88,-99.99,,,0.00,Acu-Link.com,2013-03-07 19:37:00,
2013-03-07 10:53:00,19.2,15.4,29.66,SSE,157,0.0,-999.0,85,-99.99,,,0.00,Acu-Link.com,2013-03-07 19:53:00,
2013-03-07 11:08:00,20.7,15.5,29.65,SSE,157,0.0,-999.0,80,-99.99,,,0.00,Acu-Link.com,2013-03-07 20:08:00,
2013-03-07 11:23:00,25.0,15.6,29.63,SSE,157,0.0,-999.0,67,-99.99,,,0.00,Acu-Link.com,2013-03-07 20:23:00,
2013-03-07 11:38:00,26.1,15.3,29.62,South,180,0.0,-999.0,63,-99.99,,,0.00,Acu-Link.com,2013-03-07 20:38:00,
2013-03-07 11:53:00,27.7,16.4,29.62,SW,225,2.2,-999.0,62,-99.99,,,0.00,Acu-Link.com,2013-03-07 20:53:00,
2013-03-07 12:08:00,28.4,16.7,29.62,SW,225,0.0,-999.0,61,-99.99,,,0.00,Acu-Link.com,2013-03-07 21:08:00,
2013-03-07 12:23:00,30.0,16.2,29.61,SW,225,2.2,-999.0,56,-99.99,,,0.00,Acu-Link.com,2013-03-07 21:23:00,
2013-03-07 12:38:00,34.3,18.1,29.61,SW,225,0.0,-999.0,51,-99.99,,,0.00,Acu-Link.com,2013-03-07 21:38:00,
2013-03-07 12:53:00,37.0,19.2,29.59,East,90,2.2,-999.0,48,-99.99,,,0.00,Acu-Link.com,2013-03-07 21:53:00,
2013-03-07 13:08:00,37.9,19.0,29.59,ESE,112,2.7,-999.0,46,-99.99,,,0.00,Acu-Link.com,2013-03-07 22:08:00,
2013-03-07 13:24:00,38.5,19.5,29.58,SE,135,2.2,-999.0,46,-99.99,,,0.00,Acu-Link.com,2013-03-07 22:24:00,
2013-03-07 13:39:00,38.8,20.3,29.57,SE,135,3.2,-999.0,47,-99.99,,,0.01,Acu-Link.com,2013-03-07 22:39:00,
2013-03-07 13:54:00,38.3,19.4,29.56,East,90,2.7,-999.0,46,-99.99,,,0.01,Acu-Link.com,2013-03-07 22:54:00,
2013-03-07 14:09:00,37.2,19.8,29.57,East,90,1.7,-999.0,49,-99.99,,,0.01,Acu-Link.com,2013-03-07 23:09:00,
2013-03-07 14:39:00,39.7,20.6,29.54,ESE,112,2.2,-999.0,46,-99.99,,,0.02,Acu-Link.com,2013-03-07 23:39:00,
2013-03-07 14:54:00,39.9,20.3,29.52,ESE,112,2.2,-999.0,45,-99.99,,,0.02,Acu-Link.com,2013-03-07 23:54:00,
2013-03-07 15:09:00,40.3,19.1,29.52,South,180,1.7,-999.0,42,-99.99,,,0.02,Acu-Link.com,2013-03-08 00:09:00,
2013-03-07 15:24:00,40.1,19.4,29.52,ESE,112,4.7,-999.0,43,-99.99,,,0.02,Acu-Link.com,2013-03-08 00:24:00,
2013-03-07 15:40:00,39.4,19.3,29.50,East,90,3.2,-999.0,44,-99.99,,,0.03,Acu-Link.com,2013-03-08 00:40:00,
2013-03-07 15:55:00,39.9,19.8,29.51,East,90,3.7,-999.0,44,-99.99,,,0.03,Acu-Link.com,2013-03-08 00:55:00,
2013-03-07 16:10:00,39.6,19.5,29.51,ESE,112,1.7,-999.0,44,-99.99,,,0.03,Acu-Link.com,2013-03-08 01:10:00,
2013-03-07 16:25:00,39.2,19.1,29.50,ENE,67,3.2,-999.0,44,-99.99,,,0.03,Acu-Link.com,2013-03-08 01:25:00,
2013-03-07 16:55:00,38.7,19.7,29.48,ESE,112,2.2,-999.0,46,-99.99,,,0.03,Acu-Link.com,2013-03-08 01:55:00,
2013-03-07 17:10:00,38.3,18.8,29.48,ESE,112,2.2,-999.0,45,-99.99,,,0.04,Acu-Link.com,2013-03-08 02:10:00,
2013-03-07 17:40:00,37.6,19.2,29.48,East,90,1.7,-999.0,47,-99.99,,,0.04,Acu-Link.com,2013-03-08 02:40:00,
2013-03-07 17:56:00,37.4,18.5,29.47,East,90,4.2,-999.0,46,-99.99,,,0.04,Acu-Link.com,2013-03-08 02:56:00,
2013-03-07 18:11:00,37.6,19.2,29.48,East,90,0.0,-999.0,47,-99.99,,,0.04,Acu-Link.com,2013-03-08 03:11:00,
2013-03-07 18:26:00,37.8,19.9,29.47,ESE,112,2.7,-999.0,48,-99.99,,,0.04,Acu-Link.com,2013-03-08 03:26:00,
2013-03-07 18:41:00,37.4,20.0,29.48,East,90,0.0,-999.0,49,-99.99,,,0.04,Acu-Link.com,2013-03-08 03:41:00,
2013-03-07 18:56:00,37.2,18.9,29.48,East,90,0.0,-999.0,47,-99.99,,,0.04,Acu-Link.com,2013-03-08 03:56:00,
2013-03-07 19:11:00,36.9,19.1,29.48,NE,45,1.7,-999.0,48,-99.99,,,0.04,Acu-Link.com,2013-03-08 04:11:00,
2013-03-07 19:26:00,37.8,18.4,29.47,East,90,2.7,-999.0,45,-99.99,,,0.04,Acu-Link.com,2013-03-08 04:26:00,
2013-03-07 19:41:00,36.3,19.5,29.48,North,0,0.0,-999.0,50,-99.99,,,0.04,Acu-Link.com,2013-03-08 04:41:00,
2013-03-07 19:56:00,37.2,18.4,29.49,ENE,67,1.7,-999.0,46,-99.99,,,0.04,Acu-Link.com,2013-03-08 04:56:00,
2013-03-07 20:12:00,36.7,18.4,29.48,NNE,22,2.7,-999.0,47,-99.99,,,0.04,Acu-Link.com,2013-03-08 05:12:00,
2013-03-07 20:27:00,36.1,19.3,29.49,NE,45,1.7,-999.0,50,-99.99,,,0.04,Acu-Link.com,2013-03-08 05:27:00,
2013-03-07 20:42:00,35.8,19.9,29.48,NE,45,0.0,-999.0,52,-99.99,,,0.04,Acu-Link.com,2013-03-08 05:42:00,
2013-03-07 20:57:00,35.4,19.5,29.48,ENE,67,2.2,-999.0,52,-99.99,,,0.04,Acu-Link.com,2013-03-08 05:57:00,
2013-03-07 21:12:00,33.8,19.4,29.50,NNW,337,0.0,-999.0,55,-99.99,,,0.04,Acu-Link.com,2013-03-08 06:12:00,
2013-03-07 21:27:00,32.4,20.1,29.50,NNW,337,0.0,-999.0,60,-99.99,,,0.04,Acu-Link.com,2013-03-08 06:27:00,
2013-03-07 21:42:00,31.8,19.5,29.50,ENE,67,0.0,-999.0,60,-99.99,,,0.04,Acu-Link.com,2013-03-08 06:42:00,
2013-03-07 21:57:00,33.1,19.5,29.51,NNE,22,1.1,-999.0,57,-99.99,,,0.04,Acu-Link.com,2013-03-08 06:57:00,
2013-03-07 22:12:00,33.3,20.5,29.51,WNW,292,2.2,-999.0,59,-99.99,,,0.04,Acu-Link.com,2013-03-08 07:12:00,
2013-03-07 22:28:00,31.3,20.2,29.51,WNW,292,2.2,-999.0,63,-99.99,,,0.04,Acu-Link.com,2013-03-08 07:28:00,
2013-03-07 22:43:00,29.8,20.5,29.52,WNW,292,0.0,-999.0,68,-99.99,,,0.04,Acu-Link.com,2013-03-08 07:43:00,
2013-03-07 22:58:00,29.1,19.5,29.51,WNW,292,0.0,-999.0,67,-99.99,,,0.04,Acu-Link.com,2013-03-08 07:58:00,
2013-03-07 23:13:00,27.7,19.9,29.52,WNW,292,0.0,-999.0,72,-99.99,,,0.04,Acu-Link.com,2013-03-08 08:13:00,
2013-03-07 23:28:00,27.5,19.7,29.52,WNW,292,0.0,-999.0,72,-99.99,,,0.04,Acu-Link.com,2013-03-08 08:28:00,
2013-03-07 23:43:00,27.9,18.7,29.53,WNW,292,1.1,-999.0,68,-99.99,,,0.04,Acu-Link.com,2013-03-08 08:43:00,
2013-03-07 23:58:00,28.4,19.9,29.53,WNW,292,1.7,-999.0,70,-99.99,,,0.04,Acu-Link.com,2013-03-08 08:58:00,